SLOA4: Illinois River nr Siloam Springs AR

                                SHEF ID:       SLOA4     Illinois River South of Siloam S
STATION TYPE:

STAGE RIV-FLOW BAT-LOAD
ft cfs volt
Ccp-Rev Ccp-Rev Ccp-Rev
(America/Chicago)
04/27 00:00 7.16 2990 12.20
04/27 01:00 7.04 2888 12.17
04/27 02:00 6.91 2780 12.15
04/27 03:00 6.80 2690 12.12
04/27 04:00 6.69 2601 12.10
04/27 05:00 6.59 2522 12.08
04/27 06:00 6.48 2435 12.06
04/27 07:00 6.39 2365 12.04
04/27 08:00 6.29 2289 12.19
04/27 09:00 6.20 2221 12.92
04/27 10:00 6.13 2169 12.93
04/27 11:00 6.05 2110 12.87
04/27 12:00 5.98 2059 12.80
04/27 13:00 5.90 2002 12.84
04/27 14:00 5.85 1966 12.72
04/27 15:00 5.78 1916 12.69
04/27 16:00 5.73 1881 12.66
04/27 17:00 5.68 1847 12.63
04/27 18:00 5.63 1812 12.46
04/27 19:00 5.59 1785 12.47
04/27 20:00 5.55 1758 12.48
04/27 21:00 5.49 1717 12.27
04/27 22:00 5.45 1691 12.14
04/27 23:00 ---- ---- ----
Data processed at Tue 28Apr2026 03:18 GMT

NOTICE: If you are parsing this page

Please convert to using our Data API. Starting early 2026 we will be migrating to: https://water.usace.army.mil with modern pages rendered in JavaScript. When this migration completes you will no longer be able to scrape this page! CWMSDataAPI (CDA)

Timeseries IDs (TSIDs)

TSIDs used from left to right in the data table
SILO.Stage.Inst.1Hour.0.Ccp-Rev
SILO.Flow.Inst.1Hour.0.Ccp-Rev
SILO.Volt-Battery Load.Inst.1Hour.0.Ccp-Rev

                            

All information presented herein is the property of the government of the United States of America and may be revised or deleted at any time without prior notice. Dissemination of this information without the expressed written consent of the Public Affairs Office, Tulsa District U.S. Army Corps of Engineers is strictly prohibited. These data are gathered electronically and, as presented, have NOT undergone any form of quality control. These data are NOT guaranteed to be valid or correct.